createdAt,value
2022-09-06T00:02:20.862Z,6.10
2022-09-06T00:04:49.426Z,6.57
2022-09-06T00:07:17.552Z,5.72
2022-09-06T00:09:45.477Z,4.70
2022-09-06T00:12:14.790Z,6.13
2022-09-06T00:14:42.935Z,7.37
2022-09-06T00:17:11.343Z,5.50
2022-09-06T00:19:39.574Z,5.87
2022-09-06T00:22:07.715Z,6.30
2022-09-06T00:24:37.330Z,5.33
2022-09-06T00:27:06.076Z,4.80
2022-09-06T00:29:35.825Z,4.70
2022-09-06T00:32:04.429Z,7.23
2022-09-06T00:34:32.678Z,5.35
2022-09-06T00:37:00.788Z,5.23
2022-09-06T00:39:29.249Z,7.50
2022-09-06T00:41:57.402Z,6.23
2022-09-06T00:44:25.492Z,4.27
2022-09-06T00:46:56.580Z,4.63
2022-09-06T00:49:42.427Z,8.50
2022-09-06T00:52:14.490Z,4.83
2022-09-06T00:54:43.430Z,5.93
2022-09-06T00:57:12.093Z,5.10
2022-09-06T00:59:41.617Z,6.27
2022-09-06T01:02:11.756Z,5.43
2022-09-06T01:04:42.758Z,5.30
2022-09-06T01:07:19.771Z,5.13
2022-09-06T01:09:59.084Z,4.87
2022-09-06T01:12:35.578Z,6.30
2022-09-06T01:15:14.465Z,5.47
2022-09-06T01:17:55.596Z,5.37
2022-09-06T01:20:56.433Z,6.50
2022-09-06T01:24:00.960Z,7.40
2022-09-06T01:26:59.480Z,4.40
2022-09-06T01:29:34.292Z,5.67
2022-09-06T01:32:09.141Z,4.00
2022-09-06T01:34:43.754Z,5.80
2022-09-06T01:37:14.457Z,4.67
2022-09-06T01:39:43.188Z,5.90
2022-09-06T01:42:14.536Z,5.63
2022-09-06T01:44:47.253Z,5.10
2022-09-06T01:47:25.223Z,4.90
2022-09-06T01:50:07.559Z,6.57
2022-09-06T01:52:43.218Z,5.37
2022-09-06T01:55:22.773Z,5.30
2022-09-06T01:58:09.758Z,7.53
2022-09-06T02:00:44.939Z,5.60
2022-09-06T02:03:20.658Z,5.97
2022-09-06T02:05:52.469Z,4.33
2022-09-06T02:08:26.799Z,5.10
2022-09-06T02:10:59.121Z,4.30
2022-09-06T02:13:31.590Z,5.60
2022-09-06T02:16:04.047Z,6.50
2022-09-06T02:18:36.714Z,5.57
2022-09-06T02:21:07.618Z,6.13
2022-09-06T02:23:39.562Z,4.97
2022-09-06T02:26:12.054Z,4.60
2022-09-06T02:28:40.611Z,4.53
2022-09-06T02:31:17.625Z,3.97
2022-09-06T02:33:47.416Z,4.93
2022-09-06T02:36:16.878Z,5.30
2022-09-06T02:38:46.921Z,8.30
2022-09-06T02:41:19.368Z,5.80
2022-09-06T02:43:47.494Z,6.23
2022-09-06T02:46:17.517Z,6.20
2022-09-06T02:48:46.704Z,6.37
2022-09-06T02:51:14.948Z,6.13
2022-09-06T02:53:43.189Z,6.30
2022-09-06T02:56:11.879Z,6.20
2022-09-06T02:58:40.151Z,6.10
2022-09-06T03:01:09.143Z,6.30
2022-09-06T03:03:38.771Z,4.83
2022-09-06T03:06:07.237Z,5.10
2022-09-06T03:08:36.631Z,5.13
2022-09-06T03:11:04.916Z,5.07
2022-09-06T03:13:32.970Z,4.50
2022-09-06T03:16:01.658Z,4.57
2022-09-06T03:18:31.771Z,5.87
2022-09-06T03:21:01.358Z,5.07
2022-09-06T03:23:30.653Z,4.23
2022-09-06T03:25:59.023Z,4.80
2022-09-06T03:28:28.093Z,3.97
2022-09-06T03:30:56.444Z,7.17
2022-09-06T03:33:25.047Z,4.77
2022-09-06T03:35:55.029Z,6.53
2022-09-06T03:38:25.514Z,4.50
2022-09-06T03:40:54.066Z,4.90
2022-09-06T03:43:24.102Z,4.70
2022-09-06T03:45:54.157Z,6.10
2022-09-06T03:48:24.333Z,4.50
2022-09-06T03:50:55.326Z,5.67
2022-09-06T03:53:26.269Z,6.57
2022-09-06T03:55:57.715Z,5.60
2022-09-06T03:58:30.575Z,7.80
2022-09-06T04:01:07.878Z,5.53
2022-09-06T04:03:36.731Z,5.17
2022-09-06T04:06:06.246Z,6.17
2022-09-06T04:08:36.587Z,6.50
2022-09-06T04:11:05.048Z,4.47
2022-09-06T04:13:34.006Z,4.77
2022-09-06T04:16:02.678Z,7.57
2022-09-06T04:18:31.086Z,5.27
2022-09-06T04:21:00.015Z,6.63
2022-09-06T04:23:29.529Z,7.17
2022-09-06T04:26:00.337Z,10.33
2022-09-06T04:28:29.029Z,4.87
2022-09-06T04:31:03.328Z,4.57
2022-09-06T04:33:34.250Z,4.53
2022-09-06T04:36:04.335Z,5.77
2022-09-06T04:38:37.184Z,9.03
2022-09-06T04:41:07.543Z,8.90
2022-09-06T04:43:35.769Z,16.80
2022-09-06T04:46:05.639Z,19.23
2022-09-06T04:48:33.971Z,23.57
2022-09-06T04:51:02.136Z,23.90
2022-09-06T04:53:30.178Z,17.57
2022-09-06T04:55:59.196Z,37.93
2022-09-06T04:58:28.808Z,23.90
2022-09-06T05:00:57.184Z,27.00
2022-09-06T05:03:25.640Z,10.70
2022-09-06T05:05:53.704Z,11.07
2022-09-06T05:08:21.780Z,14.90
2022-09-06T05:13:40.417Z,8.90
2022-09-06T05:16:09.606Z,12.80
2022-09-06T05:18:37.794Z,8.97
2022-09-06T05:21:07.805Z,6.13
2022-09-06T05:23:36.339Z,6.17
2022-09-06T05:26:05.184Z,10.57
2022-09-06T05:28:33.248Z,6.27
2022-09-06T05:31:10.626Z,6.43
2022-09-06T05:33:38.757Z,7.70
2022-09-06T05:36:08.385Z,10.80
2022-09-06T05:38:36.945Z,4.60
2022-09-06T05:41:05.265Z,3.93
2022-09-06T05:43:33.331Z,7.30
2022-09-06T05:46:01.505Z,5.97
2022-09-06T05:48:36.052Z,5.93
2022-09-06T05:51:07.051Z,4.20
2022-09-06T05:53:36.211Z,6.43
2022-09-06T05:56:06.044Z,3.90
2022-09-06T05:58:34.226Z,5.17
2022-09-06T06:01:07.687Z,4.80
2022-09-06T06:03:37.167Z,3.70
2022-09-06T06:06:05.348Z,5.10
2022-09-06T06:08:35.799Z,5.50
2022-09-06T06:11:03.941Z,5.20
2022-09-06T06:13:34.951Z,5.07
2022-09-06T06:16:04.451Z,4.20
2022-09-06T06:18:32.632Z,3.83
2022-09-06T06:21:13.136Z,4.17
2022-09-06T06:23:41.843Z,4.30
2022-09-06T06:26:11.330Z,6.13
2022-09-06T06:28:40.253Z,5.07
2022-09-06T06:31:10.269Z,6.13
2022-09-06T06:33:39.194Z,4.63
2022-09-06T06:36:09.362Z,4.40
2022-09-06T06:38:39.991Z,5.17
2022-09-06T06:41:09.756Z,5.10
2022-09-06T06:43:38.176Z,4.67
2022-09-06T06:46:08.388Z,5.90
2022-09-06T06:48:37.086Z,4.80
2022-09-06T06:51:05.532Z,4.90
2022-09-06T06:53:33.993Z,8.50
2022-09-06T06:56:13.830Z,3.97
2022-09-06T06:58:42.060Z,3.43
2022-09-06T07:01:11.000Z,4.63
2022-09-06T07:03:39.265Z,4.07
2022-09-06T07:08:37.263Z,4.00
2022-09-06T07:11:07.847Z,4.93
2022-09-06T07:13:36.085Z,3.17
2022-09-06T07:16:13.375Z,3.97
2022-09-06T07:18:43.005Z,2.30
2022-09-06T07:24:08.685Z,7.07
2022-09-06T07:26:40.620Z,2.03
2022-09-06T07:29:09.508Z,2.37
2022-09-06T07:34:27.209Z,3.40
2022-09-06T07:36:56.081Z,2.27
2022-09-06T07:39:24.631Z,2.23
2022-09-06T07:41:54.138Z,2.60
2022-09-06T07:44:22.324Z,2.20
2022-09-06T07:46:52.651Z,3.50
2022-09-06T07:49:20.998Z,2.80
2022-09-06T07:51:49.304Z,1.50
2022-09-06T07:54:32.803Z,4.00
2022-09-06T07:57:02.253Z,3.70
2022-09-06T07:59:30.460Z,3.53
2022-09-06T08:01:58.751Z,2.50
2022-09-06T08:04:27.243Z,5.40
2022-09-06T08:09:45.656Z,3.53
2022-09-06T08:12:15.075Z,3.10
2022-09-06T08:14:43.134Z,1.97
2022-09-06T08:17:11.399Z,3.97
2022-09-06T08:19:39.623Z,2.10
2022-09-06T08:22:07.707Z,3.90
2022-09-06T08:24:36.556Z,2.17
2022-09-06T08:27:07.662Z,4.10
2022-09-06T08:29:37.553Z,1.33
2022-09-06T08:32:05.647Z,3.07
2022-09-06T08:34:33.843Z,2.13
2022-09-06T08:37:01.934Z,4.40
2022-09-06T08:39:30.299Z,2.93
2022-09-06T08:42:03.043Z,2.57
2022-09-06T08:47:25.207Z,3.27
2022-09-06T08:49:56.817Z,1.47
2022-09-06T08:53:15.679Z,1.73
2022-09-06T08:55:46.825Z,2.20
2022-09-06T08:58:38.309Z,2.80
2022-09-06T09:01:10.996Z,2.90
2022-09-06T09:03:43.702Z,1.43
2022-09-06T09:06:12.604Z,1.53
2022-09-06T09:08:46.411Z,1.73
2022-09-06T09:11:18.826Z,2.00
2022-09-06T09:13:55.883Z,4.70
2022-09-06T09:16:24.426Z,3.27
2022-09-06T09:18:57.084Z,5.80
2022-09-06T09:21:30.644Z,1.23
2022-09-06T09:24:00.511Z,2.00
2022-09-06T09:26:34.222Z,1.80
2022-09-06T09:29:08.053Z,1.90
2022-09-06T09:31:39.143Z,2.80
2022-09-06T09:34:13.110Z,1.63
2022-09-06T09:39:37.449Z,1.90
2022-09-06T09:42:06.103Z,1.10
2022-09-06T09:44:35.449Z,1.80
2022-09-06T09:47:23.787Z,0.87
2022-09-06T09:49:53.375Z,1.07
2022-09-06T09:52:28.033Z,2.67
2022-09-06T09:55:01.200Z,1.00
2022-09-06T09:57:32.703Z,2.33
2022-09-06T10:00:02.207Z,5.67
2022-09-06T10:02:36.100Z,1.70
2022-09-06T10:05:10.160Z,8.33
2022-09-06T10:07:45.273Z,1.00
2022-09-06T10:10:15.598Z,2.87
2022-09-06T10:12:44.265Z,2.27
2022-09-06T10:15:32.660Z,1.33
2022-09-06T10:18:00.783Z,2.17
2022-09-06T10:20:35.986Z,1.30
2022-09-06T10:23:09.899Z,3.00
2022-09-06T10:25:43.951Z,0.80
2022-09-06T10:28:30.314Z,1.20
2022-09-06T10:31:34.093Z,2.27
2022-09-06T10:34:16.762Z,0.70
2022-09-06T10:36:52.744Z,1.63
2022-09-06T10:39:35.247Z,0.90
2022-09-06T10:42:14.878Z,1.07
2022-09-06T10:44:57.744Z,1.67
2022-09-06T10:47:34.247Z,1.50
2022-09-06T10:50:07.058Z,1.90
2022-09-06T10:52:41.840Z,0.80
2022-09-06T10:55:15.055Z,1.60
2022-09-06T11:00:42.945Z,1.00
2022-09-06T11:06:09.667Z,1.13
2022-09-06T11:11:23.191Z,1.47
2022-09-06T11:13:51.736Z,1.20
2022-09-06T11:16:24.990Z,1.20
2022-09-06T11:18:57.560Z,2.40
2022-09-06T11:21:51.662Z,1.00
2022-09-06T11:24:32.619Z,1.73
2022-09-06T11:27:06.557Z,1.17
2022-09-06T11:29:36.073Z,1.93
2022-09-06T11:32:25.895Z,1.00
2022-09-06T11:34:57.773Z,3.53
2022-09-06T11:37:29.194Z,2.30
2022-09-06T11:43:39.834Z,4.80
2022-09-06T11:46:08.120Z,2.40
2022-09-06T11:49:03.830Z,4.03
2022-09-06T11:51:34.870Z,2.83
2022-09-06T11:54:18.781Z,6.40
2022-09-06T11:56:56.320Z,1.40
2022-09-06T11:59:35.036Z,1.60
2022-09-06T12:02:05.617Z,3.50
2022-09-06T12:05:12.072Z,3.50
2022-09-06T12:08:18.565Z,1.80
2022-09-06T12:10:51.222Z,3.03
2022-09-06T12:13:52.748Z,3.10
2022-09-06T12:16:23.344Z,1.63
2022-09-06T12:18:58.067Z,5.53
2022-09-06T12:21:46.203Z,2.47
2022-09-06T12:24:51.375Z,3.03
2022-09-06T12:27:22.550Z,2.60
2022-09-06T12:29:55.403Z,7.30
2022-09-06T12:32:28.504Z,3.73
2022-09-06T12:37:55.168Z,1.60
2022-09-06T12:40:24.504Z,2.27
2022-09-06T12:42:54.110Z,4.67
2022-09-06T12:45:27.389Z,4.63
2022-09-06T12:48:08.974Z,4.73
2022-09-06T12:50:37.582Z,2.00
2022-09-06T12:53:23.658Z,5.87
2022-09-06T12:56:04.458Z,1.80
2022-09-06T12:58:32.599Z,3.67
2022-09-06T13:01:09.516Z,8.00
2022-09-06T13:03:43.113Z,2.30
2022-09-06T13:06:26.029Z,3.47
2022-09-06T13:08:57.309Z,2.23
2022-09-06T13:11:29.551Z,1.50
2022-09-06T13:13:57.983Z,2.10
2022-09-06T13:16:28.434Z,5.50
2022-09-06T13:19:12.633Z,6.57
2022-09-06T13:21:43.150Z,2.00
2022-09-06T13:24:22.506Z,2.10
2022-09-06T13:26:50.775Z,2.10
2022-09-06T13:29:26.899Z,3.73
2022-09-06T13:31:57.021Z,1.97
2022-09-06T13:34:29.190Z,2.43
2022-09-06T13:37:02.512Z,3.80
2022-09-06T13:39:33.106Z,2.50
2022-09-06T13:42:09.086Z,3.73
2022-09-06T13:44:38.871Z,7.60
2022-09-06T13:47:07.571Z,1.53
2022-09-06T13:49:37.092Z,2.10
2022-09-06T13:52:06.364Z,4.17
2022-09-06T13:54:35.295Z,3.83
2022-09-06T13:57:03.760Z,8.50
2022-09-06T13:59:32.285Z,2.07
2022-09-06T14:02:05.580Z,2.07
2022-09-06T14:04:34.333Z,5.43
2022-09-06T14:07:04.058Z,2.60
2022-09-06T14:09:32.867Z,2.50
2022-09-06T14:12:01.010Z,3.97
2022-09-06T14:14:29.533Z,1.40
2022-09-06T14:16:57.964Z,1.70
2022-09-06T14:19:26.085Z,4.23
2022-09-06T14:21:54.376Z,4.00
2022-09-06T14:24:24.222Z,2.03
2022-09-06T14:26:52.384Z,1.83
2022-09-06T14:29:20.767Z,2.93
2022-09-06T14:31:49.444Z,1.80
2022-09-06T14:34:17.623Z,3.23
2022-09-06T14:36:45.869Z,6.00
2022-09-06T14:39:14.050Z,5.63
2022-09-06T14:41:43.693Z,3.33
2022-09-06T14:44:11.966Z,4.70
2022-09-06T14:46:40.350Z,2.07
2022-09-06T14:49:10.778Z,2.67
2022-09-06T14:51:40.007Z,6.60
2022-09-06T14:54:09.977Z,3.30
2022-09-06T14:56:39.979Z,5.00
2022-09-06T14:59:10.193Z,3.30
2022-09-06T15:01:39.265Z,3.67
2022-09-06T15:04:09.624Z,6.67
2022-09-06T15:06:40.678Z,3.50
2022-09-06T15:09:11.474Z,1.77
2022-09-06T15:11:41.483Z,2.00
2022-09-06T15:14:15.145Z,2.87
2022-09-06T15:16:43.775Z,4.27
2022-09-06T15:19:11.961Z,2.50
2022-09-06T15:21:40.369Z,2.03
2022-09-06T15:24:12.025Z,2.10
2022-09-06T15:26:41.301Z,5.73
2022-09-06T15:29:11.685Z,4.03
2022-09-06T15:31:40.694Z,2.70
2022-09-06T15:34:09.883Z,2.60
2022-09-06T15:36:39.045Z,3.70
2022-09-06T15:39:07.653Z,3.43
2022-09-06T15:41:37.661Z,3.50
2022-09-06T15:44:11.435Z,2.60
2022-09-06T15:46:44.076Z,5.20
2022-09-06T15:49:15.002Z,7.67
2022-09-06T15:51:44.000Z,3.40
2022-09-06T15:54:13.397Z,3.50
2022-09-06T15:56:42.137Z,3.27
2022-09-06T15:59:13.064Z,3.20
2022-09-06T16:01:41.307Z,1.83
2022-09-06T16:04:09.676Z,2.90
2022-09-06T16:06:39.752Z,2.83
2022-09-06T16:09:10.316Z,4.43
2022-09-06T16:11:38.712Z,6.73
2022-09-06T16:14:08.723Z,2.50
2022-09-06T16:16:40.594Z,3.90
2022-09-06T16:19:10.184Z,12.10
2022-09-06T16:21:41.793Z,4.57
2022-09-06T16:24:12.169Z,4.93
2022-09-06T16:26:42.518Z,4.47
2022-09-06T16:29:12.374Z,4.97
2022-09-06T16:31:42.274Z,3.67
2022-09-06T16:34:10.908Z,4.97
2022-09-06T16:36:39.177Z,1.87
2022-09-06T16:39:08.379Z,6.47
2022-09-06T16:41:40.872Z,4.03
2022-09-06T16:44:09.422Z,2.67
2022-09-06T16:46:40.235Z,4.30
2022-09-06T16:49:10.401Z,3.63
2022-09-06T16:51:38.673Z,5.37
2022-09-06T16:54:07.243Z,6.40
2022-09-06T16:56:36.049Z,6.27
2022-09-06T16:59:07.016Z,3.23
2022-09-06T17:01:37.389Z,11.17
2022-09-06T17:04:06.925Z,7.50
2022-09-06T17:06:42.230Z,3.70
2022-09-06T17:09:10.596Z,2.60
2022-09-06T17:11:40.292Z,4.27
2022-09-06T17:14:08.882Z,4.20
2022-09-06T17:16:54.770Z,6.30
2022-09-06T17:19:23.103Z,7.23
2022-09-06T17:21:52.720Z,5.17
2022-09-06T17:24:21.051Z,4.93
2022-09-06T17:26:49.235Z,3.20
2022-09-06T17:29:17.549Z,6.87
2022-09-06T17:31:45.737Z,3.60
2022-09-06T17:34:13.938Z,5.87
2022-09-06T17:36:42.227Z,10.33
2022-09-06T17:39:15.079Z,4.40
2022-09-06T17:41:46.182Z,4.23
2022-09-06T17:44:16.693Z,5.10
2022-09-06T17:47:02.782Z,5.77
2022-09-06T17:49:33.925Z,6.97
2022-09-06T17:52:02.184Z,4.10
2022-09-06T17:54:32.704Z,7.30
2022-09-06T17:57:00.827Z,7.23
2022-09-06T17:59:32.907Z,4.43
2022-09-06T18:02:03.301Z,7.87
2022-09-06T18:04:31.567Z,5.03
2022-09-06T18:06:59.898Z,8.80
2022-09-06T18:09:28.498Z,6.10
2022-09-06T18:11:58.577Z,6.00
2022-09-06T18:14:28.712Z,4.80
2022-09-06T18:16:57.247Z,4.40
2022-09-06T18:19:26.282Z,6.23
2022-09-06T18:21:55.054Z,5.60
2022-09-06T18:24:24.071Z,4.57
2022-09-06T18:26:52.207Z,4.67
2022-09-06T18:29:21.977Z,4.30
2022-09-06T18:31:53.670Z,9.63
2022-09-06T18:34:22.468Z,7.50
2022-09-06T18:36:50.658Z,6.30
2022-09-06T18:39:19.198Z,8.60
2022-09-06T18:42:06.887Z,13.37
2022-09-06T18:44:36.909Z,11.27
2022-09-06T18:47:07.152Z,14.40
2022-09-06T18:49:39.473Z,12.03
2022-09-06T18:52:10.296Z,11.93
2022-09-06T18:54:38.493Z,10.70
2022-09-06T18:57:06.752Z,12.30
2022-09-06T18:59:36.287Z,17.67
2022-09-06T19:02:04.570Z,14.43
2022-09-06T19:04:32.987Z,15.73
2022-09-06T19:07:02.670Z,12.60
2022-09-06T19:09:30.959Z,12.37
2022-09-06T19:11:59.106Z,12.63
2022-09-06T19:14:27.316Z,10.97
2022-09-06T19:16:57.142Z,11.73
2022-09-06T19:19:25.623Z,9.20
2022-09-06T19:21:53.863Z,8.07
2022-09-06T19:24:24.654Z,8.50
2022-09-06T19:26:55.182Z,14.10
2022-09-06T19:29:23.481Z,13.63
2022-09-06T19:31:52.218Z,15.63
2022-09-06T19:34:22.462Z,6.40
2022-09-06T19:36:55.406Z,5.43
2022-09-06T19:39:31.130Z,5.10
2022-09-06T19:42:01.813Z,5.60
2022-09-06T19:44:30.170Z,4.80
2022-09-06T19:47:00.052Z,4.33
2022-09-06T19:49:30.876Z,3.93
2022-09-06T19:51:59.022Z,5.77
2022-09-06T19:54:27.619Z,3.47
2022-09-06T19:56:55.784Z,7.73
2022-09-06T19:59:23.932Z,4.17
2022-09-06T20:01:52.266Z,4.20
2022-09-06T20:04:20.992Z,4.30
2022-09-06T20:06:50.659Z,5.30
2022-09-06T20:09:18.863Z,4.80
2022-09-06T20:11:47.076Z,3.80
2022-09-06T20:14:15.631Z,4.50
2022-09-06T20:16:43.971Z,5.00
2022-09-06T20:19:15.039Z,2.73
2022-09-06T20:21:44.384Z,3.63
2022-09-06T20:24:13.947Z,4.53
2022-09-06T20:26:42.295Z,4.63
2022-09-06T20:29:11.069Z,7.20
2022-09-06T20:31:39.711Z,2.87
2022-09-06T20:34:08.728Z,7.97
2022-09-06T20:36:36.865Z,2.87
2022-09-06T20:39:06.073Z,3.80
2022-09-06T20:41:35.752Z,4.67
2022-09-06T20:44:04.194Z,4.50
2022-09-06T20:46:35.320Z,5.80
2022-09-06T20:49:05.109Z,5.40
2022-09-06T20:51:35.213Z,6.63
2022-09-06T20:54:05.297Z,4.10
2022-09-06T20:56:36.596Z,5.83
2022-09-06T20:59:07.002Z,5.67
2022-09-06T21:01:38.875Z,6.03
2022-09-06T21:04:09.667Z,3.97
2022-09-06T21:06:39.370Z,2.80
2022-09-06T21:09:09.699Z,3.93
2022-09-06T21:11:39.917Z,4.00
2022-09-06T21:14:09.473Z,2.90
2022-09-06T21:16:39.373Z,4.50
2022-09-06T21:19:10.065Z,2.93
2022-09-06T21:21:38.891Z,4.00
2022-09-06T21:24:08.611Z,3.00
2022-09-06T21:26:38.324Z,4.17
2022-09-06T21:29:06.855Z,2.80
2022-09-06T21:31:37.026Z,4.27
2022-09-06T21:34:07.031Z,6.30
2022-09-06T21:36:37.527Z,3.40
2022-09-06T21:39:07.427Z,3.77
2022-09-06T21:41:35.674Z,4.20
2022-09-06T21:44:07.115Z,3.37
2022-09-06T21:46:37.199Z,3.27
2022-09-06T21:49:09.399Z,4.53
2022-09-06T21:51:38.773Z,3.90
2022-09-06T21:54:07.711Z,3.20
2022-09-06T21:56:38.605Z,6.77
2022-09-06T21:59:08.775Z,5.50
2022-09-06T22:01:38.555Z,4.20
2022-09-06T22:04:07.309Z,7.17
2022-09-06T22:06:36.338Z,5.20
2022-09-06T22:09:10.666Z,3.90
2022-09-06T22:11:40.430Z,8.53
2022-09-06T22:14:11.899Z,9.50
2022-09-06T22:16:41.467Z,5.23
2022-09-06T22:19:11.081Z,4.60
2022-09-06T22:21:39.813Z,4.37
2022-09-06T22:24:10.398Z,6.40
2022-09-06T22:26:40.986Z,5.33
2022-09-06T22:29:13.472Z,6.17
2022-09-06T22:31:42.073Z,3.13
2022-09-06T22:34:10.986Z,4.53
2022-09-06T22:36:39.221Z,5.37
2022-09-06T22:39:07.657Z,6.70
2022-09-06T22:41:36.642Z,9.47
2022-09-06T22:44:06.072Z,4.40
2022-09-06T22:46:37.071Z,8.53
2022-09-06T22:49:05.621Z,3.80
2022-09-06T22:51:33.909Z,5.03
2022-09-06T22:54:02.248Z,3.40
2022-09-06T22:56:30.719Z,7.40
2022-09-06T22:59:00.953Z,6.80
2022-09-06T23:01:29.744Z,6.20
2022-09-06T23:03:59.341Z,5.80
2022-09-06T23:06:28.377Z,5.90
2022-09-06T23:08:56.541Z,4.67
2022-09-06T23:11:24.685Z,5.00
2022-09-06T23:13:57.250Z,7.10
2022-09-06T23:16:26.449Z,3.43
2022-09-06T23:18:55.503Z,4.93
2022-09-06T23:21:26.799Z,4.80
2022-09-06T23:23:57.421Z,4.60
2022-09-06T23:26:28.618Z,5.33
2022-09-06T23:28:57.411Z,4.17
2022-09-06T23:31:27.934Z,3.77
2022-09-06T23:33:57.458Z,5.00
2022-09-06T23:36:27.746Z,7.67
2022-09-06T23:38:56.524Z,5.90
2022-09-06T23:41:25.509Z,5.90
2022-09-06T23:43:53.814Z,10.03
2022-09-06T23:46:22.246Z,5.10
2022-09-06T23:48:50.573Z,3.57
2022-09-06T23:51:19.161Z,6.30
2022-09-06T23:53:48.700Z,5.60
2022-09-06T23:56:16.967Z,4.37
2022-09-06T23:58:45.118Z,3.40
